Time;durP1;ratioP1;P1;durP2;ratioP2;P2;SDS_P1;SDS_P2;PMS_P1;PMS_P2;Temp;Humidity;BMP_temperature;BMP_pressure;BME280_temperature;BME280_humidity;BME280_pressure;Samples;Min_cycle;Max_cycle;Signal;HPM_P1;HPM_P2
2022/06/14 00:01:55;;;;;;;4.72;2.28;;;;;;;17.03;43.60;102300.28;5046211;28;20128;-66
2022/06/14 00:04:22;;;;;;;8.10;2.35;;;;;;;17.01;43.78;102291.41;5032772;28;20562;-65
2022/06/14 00:06:49;;;;;;;8.80;2.53;;;;;;;17.00;43.74;102291.50;5040447;28;20558;-66
2022/06/14 00:09:15;;;;;;;4.72;2.35;;;;;;;16.96;44.12;102288.16;5033145;28;20137;-66
2022/06/14 00:11:42;;;;;;;8.60;2.60;;;;;;;16.95;43.89;102283.72;5031182;28;20061;-65
2022/06/14 00:14:10;;;;;;;7.35;2.80;;;;;;;16.92;44.10;102286.66;5033875;28;20054;-65
2022/06/14 00:16:38;;;;;;;4.63;2.38;;;;;;;16.90;44.15;102274.19;5033792;28;20091;-65
2022/06/14 00:19:05;;;;;;;5.97;2.75;;;;;;;16.85;44.35;102277.25;5030127;28;20464;-64
2022/06/14 00:21:34;;;;;;;5.50;2.38;;;;;;;16.82;44.39;102275.63;5031841;28;20038;-65
2022/06/14 00:24:06;;;;;;;9.93;2.83;;;;;;;16.80;44.53;102293.88;5033336;28;20049;-65
2022/06/14 00:26:32;;;;;;;10.80;2.95;;;;;;;16.77;44.39;102282.38;5033589;28;20496;-65
2022/06/14 00:28:59;;;;;;;4.22;2.42;;;;;;;16.74;44.56;102291.63;5037753;28;20037;-65
2022/06/14 00:31:28;;;;;;;8.63;2.75;;;;;;;16.70;44.27;102286.53;5033495;28;20042;-65
2022/06/14 00:33:58;;;;;;;6.07;2.60;;;;;;;16.66;44.80;102290.44;5032719;28;20045;-65
2022/06/14 00:36:28;;;;;;;5.32;2.65;;;;;;;16.65;44.59;102300.44;5032969;28;20038;-65
2022/06/14 00:38:57;;;;;;;13.80;3.58;;;;;;;16.60;44.71;102297.16;5032758;28;20376;-65
2022/06/14 00:41:36;;;;;;;7.60;2.80;;;;;;;16.52;44.66;102297.72;5032775;28;20116;-65
2022/06/14 00:44:13;;;;;;;7.75;2.47;;;;;;;16.43;45.12;102295.69;5032699;28;20045;-65
2022/06/14 00:47:02;;;;;;;6.03;2.80;;;;;;;16.32;44.97;102300.13;5032201;28;20033;-65
2022/06/14 00:49:41;;;;;;;7.82;2.30;;;;;;;16.23;44.75;102298.94;5032080;28;20056;-64
2022/06/14 00:52:31;;;;;;;9.63;2.80;;;;;;;16.12;45.00;102298.84;5032065;28;20095;-64
2022/06/14 00:55:09;;;;;;;6.90;2.67;;;;;;;16.03;45.35;102296.78;5032363;28;20037;-65
2022/06/14 00:57:42;;;;;;;5.70;2.42;;;;;;;15.98;45.31;102310.66;5021037;28;20045;-64
2022/06/14 01:00:18;;;;;;;6.28;2.50;;;;;;;15.94;45.36;102300.16;5038653;28;20080;-65
2022/06/14 01:02:52;;;;;;;6.85;2.42;;;;;;;15.88;45.60;102296.91;5019406;28;20124;-65
2022/06/14 01:06:05;;;;;;;6.97;2.95;;;;;;;15.83;45.56;102301.78;5036377;28;20276;-65
2022/06/14 01:08:17;;;;;;;10.30;2.72;;;;;;;15.80;45.46;102296.56;5034838;28;20048;-65
2022/06/14 01:10:47;;;;;;;5.78;2.90;;;;;;;15.76;45.82;102302.31;5036335;28;20399;-65
2022/06/14 01:13:19;;;;;;;10.15;3.47;;;;;;;15.73;45.68;102292.56;5044155;28;20048;-65
2022/06/14 01:15:49;;;;;;;9.75;3.25;;;;;;;15.71;45.78;102288.22;5034426;28;20042;-65
2022/06/14 01:18:16;;;;;;;5.25;2.85;;;;;;;15.68;46.01;102283.88;5036375;28;20119;-65
2022/06/14 01:20:43;;;;;;;6.78;3.10;;;;;;;15.62;46.27;102287.03;5035763;28;20534;-65
2022/06/14 01:23:16;;;;;;;6.80;3.08;;;;;;;15.54;46.55;102289.34;5035667;28;20474;-65
2022/06/14 01:25:51;;;;;;;6.32;3.20;;;;;;;15.48;46.54;102281.63;5035503;28;20057;-64
2022/06/14 01:28:20;;;;;;;;;;;;;;;15.44;46.05;102280.09;5036256;28;20411;-64
2022/06/14 01:30:51;;;;;;;9.30;3.17;;;;;;;15.46;46.13;102275.47;5035700;28;20030;-64
2022/06/14 01:33:27;;;;;;;7.45;3.28;;;;;;;15.44;46.43;102271.97;5036472;28;20446;-64
2022/06/14 01:36:06;;;;;;;4.45;2.95;;;;;;;15.43;46.60;102281.94;5040334;28;20391;-64
2022/06/14 01:38:33;;;;;;;6.03;3.58;;;;;;;15.44;46.36;102271.97;5036795;28;20140;-64
2022/06/14 01:41:29;;;;;;;5.65;3.08;;;;;;;15.44;46.79;102271.97;5036629;28;20380;-64
2022/06/14 01:44:08;;;;;;;7.65;3.20;;;;;;;15.43;46.75;102270.25;5026405;28;20484;-64
2022/06/14 01:46:55;;;;;;;7.32;3.35;;;;;;;15.43;46.90;102270.25;5035075;28;20069;-65
2022/06/14 01:52:59;;;;;;;6.60;3.42;;;;;;;15.42;46.85;102263.09;5025036;28;20120;-64
2022/06/14 01:55:31;;;;;;;7.22;3.50;;;;;;;15.38;46.62;102261.56;5035386;28;20068;-66
2022/06/14 01:58:07;;;;;;;7.57;3.17;;;;;;;15.34;46.75;102260.06;5035328;28;20495;-66
2022/06/14 02:00:41;;;;;;;6.57;3.45;;;;;;;15.26;46.97;102256.03;5035263;28;20476;-65
2022/06/14 02:06:40;;;;;;;5.03;2.88;;;;;;;15.13;47.01;102265.97;5026955;28;20491;-65
2022/06/14 02:09:33;;;;;;;6.80;3.63;;;;;;;15.06;46.88;102258.38;5036055;28;20038;-66
2022/06/14 02:12:17;;;;;;;7.65;3.88;;;;;;;15.00;47.14;102265.06;5035020;28;20495;-65
2022/06/14 02:14:59;;;;;;;5.47;3.05;;;;;;;14.97;47.25;102262.56;5034695;28;20575;-65
2022/06/14 02:17:34;;;;;;;4.65;3.05;;;;;;;14.94;47.40;102262.75;5036347;28;20622;-65
2022/06/14 02:20:08;;;;;;;6.57;3.00;;;;;;;14.91;47.23;102260.25;5042334;28;20491;-65
2022/06/14 02:23:03;;;;;;;5.22;2.72;;;;;;;14.89;47.70;102264.91;5035332;28;20041;-65
2022/06/14 02:25:52;;;;;;;4.07;3.08;;;;;;;14.87;47.50;102264.16;5035796;28;20491;-65
2022/06/14 02:28:29;;;;;;;4.18;3.20;;;;;;;14.85;47.60;102266.91;5035593;28;20066;-65
2022/06/14 02:31:00;;;;;;;7.53;3.33;;;;;;;14.84;47.72;102264.31;5035667;28;20507;-65
2022/06/14 02:33:58;;;;;;;6.20;2.83;;;;;;;14.80;47.87;102260.94;5036306;28;20487;-65
2022/06/14 02:36:33;;;;;;;5.75;3.00;;;;;;;14.80;47.81;102257.38;5036220;28;20626;-64
2022/06/14 02:39:12;;;;;;;8.80;3.70;;;;;;;14.81;47.83;102257.28;5039037;28;20053;-64
2022/06/14 02:42:01;;;;;;;7.32;3.60;;;;;;;14.81;47.95;102251.00;5036645;28;20116;-65
2022/06/14 02:44:52;;;;;;;5.47;3.20;;;;;;;14.79;47.82;102252.94;5029266;28;20053;-65
2022/06/14 02:47:31;;;;;;;7.22;3.20;;;;;;;14.77;47.84;102253.03;5034757;28;20546;-65
2022/06/14 02:50:15;;;;;;;6.65;3.25;;;;;;;14.75;48.04;102243.28;5034027;28;20049;-65
2022/06/14 02:53:06;;;;;;;7.22;3.67;;;;;;;14.72;48.13;102241.66;5033501;28;20042;-65
2022/06/14 02:55:38;;;;;;;4.50;3.00;;;;;;;14.71;47.83;102245.34;5033679;28;20546;-65
2022/06/14 02:58:23;;;;;;;6.72;3.70;;;;;;;14.68;48.13;102239.25;5038296;28;20045;-64
2022/06/14 03:01:00;;;;;;;5.97;3.13;;;;;;;14.65;48.11;102237.63;5033508;28;20048;-65
2022/06/14 03:03:38;;;;;;;7.03;2.95;;;;;;;14.66;48.34;102243.91;5047188;28;20058;-65
2022/06/14 03:06:12;;;;;;;5.20;3.53;;;;;;;14.61;48.10;102236.09;5034457;28;20192;-65
2022/06/14 03:08:50;;;;;;;11.98;4.00;;;;;;;14.59;48.31;102232.63;5034790;28;20045;-66
2022/06/14 03:11:38;;;;;;;11.55;4.90;;;;;;;14.56;48.21;102233.69;5025005;28;20045;-66
2022/06/14 03:14:27;;;;;;;7.55;3.70;;;;;;;14.53;48.53;102241.13;5034029;28;20045;-65
2022/06/14 03:17:22;;;;;;;7.93;3.28;;;;;;;14.50;48.50;102239.50;5035285;28;20402;-65
2022/06/14 03:20:02;;;;;;;6.88;3.85;;;;;;;14.50;48.43;102236.81;5038272;28;20042;-65
2022/06/14 03:22:44;;;;;;;6.13;3.25;;;;;;;14.51;48.56;102241.25;5035157;28;20101;-65
2022/06/14 03:25:49;;;;;;;5.15;3.45;;;;;;;14.51;48.58;102243.94;5034049;28;20132;-65
2022/06/14 03:28:23;;;;;;;5.43;3.88;;;;;;;14.52;48.33;102251.09;5033927;28;20096;-65
2022/06/14 03:31:02;;;;;;;6.05;3.47;;;;;;;14.49;48.44;102245.00;5035037;28;20080;-65
2022/06/14 03:34:21;;;;;;;11.75;4.07;;;;;;;14.43;48.56;102237.31;5018792;28;20038;-65
2022/06/14 03:36:47;;;;;;;6.10;3.20;;;;;;;14.37;48.31;102245.78;5019435;28;20037;-65
2022/06/14 03:39:19;;;;;;;7.65;3.60;;;;;;;14.31;48.34;102247.03;5032717;28;20081;-66
2022/06/14 03:41:48;;;;;;;6.95;3.70;;;;;;;14.28;48.48;102253.50;5032532;28;20045;-65
2022/06/14 03:44:16;;;;;;;7.47;3.65;;;;;;;14.21;48.77;102246.78;5032817;28;20734;-66
2022/06/14 03:46:52;;;;;;;7.88;3.70;;;;;;;14.18;48.67;102243.41;5033000;28;20037;-66
2022/06/14 03:49:23;;;;;;;10.02;3.80;;;;;;;14.18;48.82;102246.09;5032847;28;20041;-65
2022/06/14 03:52:16;;;;;;;5.80;3.78;;;;;;;14.17;48.92;102238.97;5032846;28;20033;-66
2022/06/14 03:55:10;;;;;;;7.15;3.50;;;;;;;14.16;48.92;102248.03;5032671;28;20491;-65
2022/06/14 03:57:55;;;;;;;6.88;3.47;;;;;;;14.15;48.89;102255.25;5022535;28;20052;-65
2022/06/14 04:00:21;;;;;;;6.82;3.72;;;;;;;14.15;49.03;102246.28;5033039;28;20041;-65
2022/06/14 04:03:14;;;;;;;6.80;3.58;;;;;;;14.12;49.29;102251.84;5035743;28;20037;-64
2022/06/14 04:06:06;;;;;;;9.32;3.50;;;;;;;14.14;49.02;102247.25;5018989;28;20048;-66
2022/06/14 04:08:49;;;;;;;5.22;3.65;;;;;;;14.13;49.05;102240.13;5032512;28;20569;-66
2022/06/14 04:11:37;;;;;;;5.68;3.60;;;;;;;14.09;49.04;102246.66;5032761;28;20046;-65
2022/06/14 04:14:50;;;;;;;6.20;3.17;;;;;;;14.03;49.26;102249.75;5032542;28;20042;-65
2022/06/14 04:17:39;;;;;;;7.30;4.00;;;;;;;13.96;49.33;102252.84;5054655;28;20539;-65
2022/06/14 04:20:15;;;;;;;10.85;4.15;;;;;;;13.94;49.27;102252.06;5024226;28;20053;-65
2022/06/14 04:22:42;;;;;;;6.47;4.03;;;;;;;13.94;49.23;102252.06;5032709;28;20506;-66
2022/06/14 04:25:16;;;;;;;5.60;3.65;;;;;;;13.95;49.53;102253.78;5032475;28;20049;-65
2022/06/14 04:28:14;;;;;;;8.23;4.47;;;;;;;13.97;49.52;102256.41;5032425;28;20591;-65
2022/06/14 04:31:05;;;;;;;7.88;3.90;;;;;;;13.94;49.66;102265.56;5032031;28;20491;-65
2022/06/14 04:33:43;;;;;;;7.95;4.00;;;;;;;13.88;49.61;102263.25;5031583;28;20041;-65
2022/06/14 04:36:23;;;;;;;8.80;4.25;;;;;;;13.82;49.86;102266.31;5032216;28;20045;-65
2022/06/14 04:38:56;;;;;;;8.45;4.43;;;;;;;13.80;50.18;102259.28;5032230;28;20499;-65
2022/06/14 04:41:34;;;;;;;6.35;4.38;;;;;;;13.83;50.33;102261.78;5032126;28;20483;-65
2022/06/14 04:44:26;;;;;;;8.82;4.60;;;;;;;13.86;50.58;102259.78;5032038;28;20038;-66
2022/06/14 04:47:09;;;;;;;7.82;4.78;;;;;;;13.92;50.61;102263.91;5032302;28;20037;-66
2022/06/14 04:49:46;;;;;;;11.57;5.43;;;;;;;13.96;50.59;102268.16;5032369;28;20423;-65
2022/06/14 04:52:27;;;;;;;10.02;4.97;;;;;;;13.93;50.66;102274.63;5032498;28;20403;-66
2022/06/14 04:55:08;;;;;;;9.80;4.90;;;;;;;13.91;50.75;102273.84;5032863;28;20046;-66
2022/06/14 04:57:55;;;;;;;9.95;4.75;;;;;;;13.96;51.00;102273.56;5032858;28;20150;-65
2022/06/14 05:00:28;;;;;;;8.20;4.68;;;;;;;14.04;51.08;102273.97;5033126;28;20037;-66
2022/06/14 05:03:17;;;;;;;12.02;6.60;;;;;;;14.06;51.37;102273.84;5034064;28;20147;-66
2022/06/14 05:05:52;;;;;;;11.98;6.90;;;;;;;14.08;51.25;102271.94;5019773;28;20080;-66
2022/06/14 05:08:28;;;;;;;13.02;6.60;;;;;;;14.08;51.65;102264.69;5033662;28;20052;-66
2022/06/14 05:11:14;;;;;;;12.50;7.38;;;;;;;14.11;51.81;102269.03;5026682;28;20109;-66
2022/06/14 05:13:40;;;;;;;9.93;7.18;;;;;;;14.12;52.00;102265.38;5036374;28;20073;-66
2022/06/14 05:16:12;;;;;;;18.10;8.30;;;;;;;14.15;52.15;102259.81;5032125;28;20120;-66
2022/06/14 05:18:44;;;;;;;12.98;8.70;;;;;;;14.21;52.38;102259.41;5032635;28;20390;-65
2022/06/14 05:21:22;;;;;;;23.08;9.70;;;;;;;14.30;52.78;102273.19;5042738;28;20052;-66
2022/06/14 05:23:56;;;;;;;16.42;9.68;;;;;;;14.41;52.99;102274.34;5031704;28;20076;-66
2022/06/14 05:26:29;;;;;;;13.82;9.70;;;;;;;14.50;53.03;102284.59;5031885;28;20517;-66
2022/06/14 05:28:58;;;;;;;16.38;9.90;;;;;;;14.59;53.00;102274.06;5030465;28;20045;-66
2022/06/14 05:31:43;;;;;;;13.50;10.30;;;;;;;14.72;53.51;102278.66;5030760;28;20042;-65
2022/06/14 05:34:36;;;;;;;17.73;10.10;;;;;;;14.83;53.52;102287.78;5032112;28;20044;-65
2022/06/14 05:37:32;;;;;;;18.95;9.90;;;;;;;14.97;53.35;102288.75;5032108;28;20371;-66
2022/06/14 05:40:14;;;;;;;14.40;9.45;;;;;;;15.09;53.33;102287.91;5032125;28;20072;-65
2022/06/14 05:42:50;;;;;;;17.33;9.35;;;;;;;15.19;53.30;102283.63;5031769;28;20052;-65
2022/06/14 05:45:21;;;;;;;14.55;9.52;;;;;;;15.29;53.37;102294.69;5019289;28;20069;-65
2022/06/14 05:47:57;;;;;;;15.18;7.32;;;;;;;15.38;53.68;102280.53;5039301;28;20063;-65
2022/06/14 05:50:31;;;;;;;15.70;7.68;;;;;;;15.48;53.65;102287.03;5033967;28;20124;-65
2022/06/14 05:53:05;;;;;;;14.63;7.40;;;;;;;15.60;53.69;102280.81;5035270;28;20089;-65
2022/06/14 05:55:48;;;;;;;14.57;7.53;;;;;;;15.73;53.78;102283.56;5035268;28;20057;-66
2022/06/14 05:58:22;;;;;;;14.98;6.78;;;;;;;15.86;53.43;102279.03;5035426;28;20096;-66
2022/06/14 06:01:07;;;;;;;13.57;6.97;;;;;;;16.03;53.50;102288.66;5035238;28;20041;-67
2022/06/14 06:03:39;;;;;;;14.80;6.63;;;;;;;16.27;53.50;102284.19;5034541;28;20124;-66
2022/06/14 06:06:25;;;;;;;12.27;6.43;;;;;;;16.48;53.31;102290.78;5035184;28;20051;-66
2022/06/14 06:09:01;;;;;;;11.30;6.05;;;;;;;16.66;52.99;102290.44;5035088;28;20044;-66
2022/06/14 06:11:40;;;;;;;12.43;6.50;;;;;;;16.77;53.46;102288.69;5035440;28;20041;-67
2022/06/14 06:14:12;;;;;;;11.32;5.85;;;;;;;16.86;53.11;102286.25;5035286;28;20049;-67
2022/06/14 06:16:49;;;;;;;14.30;6.10;;;;;;;17.01;53.16;102285.09;5050188;28;20130;-66
2022/06/14 06:19:24;;;;;;;11.38;5.78;;;;;;;17.19;52.99;102291.88;5034053;28;20049;-66
2022/06/14 06:22:16;;;;;;;13.73;5.82;;;;;;;17.39;52.98;102277.66;5035112;28;20038;-67
2022/06/14 06:24:55;;;;;;;12.65;6.13;;;;;;;17.58;52.96;102277.09;5024301;28;20120;-66
2022/06/14 06:27:26;;;;;;;10.30;5.57;;;;;;;17.81;53.00;102293.47;5035035;28;20041;-68
2022/06/14 06:29:59;;;;;;;14.45;5.70;;;;;;;18.00;52.38;102285.63;5036133;28;20029;-67
2022/06/14 06:32:31;;;;;;;12.05;5.13;;;;;;;18.15;52.12;102289.81;5028047;28;20117;-67
2022/06/14 06:35:01;;;;;;;13.45;5.20;;;;;;;18.27;52.20;102291.56;5028505;28;20157;-67
2022/06/14 06:37:45;;;;;;;11.23;4.43;;;;;;;18.37;51.47;102284.38;5030135;28;20033;-67
2022/06/14 06:40:18;;;;;;;8.02;4.50;;;;;;;18.56;51.12;102283.75;5032098;28;20037;-67
2022/06/14 06:43:09;;;;;;;9.10;3.65;;;;;;;18.76;50.97;102295.78;5032584;28;20559;-67
2022/06/14 06:45:42;;;;;;;7.50;3.20;;;;;;;18.94;50.37;102294.25;5036536;28;20036;-66
2022/06/14 06:48:15;;;;;;;7.13;3.03;;;;;;;19.14;50.26;102294.44;5033745;28;20048;-68
2022/06/14 06:50:50;;;;;;;7.57;2.97;;;;;;;19.38;49.65;102302.41;5034332;28;20073;-67
2022/06/14 06:53:22;;;;;;;7.47;3.20;;;;;;;19.58;49.24;102293.41;5030479;28;20128;-66
2022/06/14 06:56:04;;;;;;;8.90;3.30;;;;;;;19.81;48.47;102294.13;5031141;28;20141;-66
2022/06/14 06:58:36;;;;;;;8.07;2.70;;;;;;;20.03;48.12;102299.44;5028772;28;20068;-67
2022/06/14 07:01:13;;;;;;;8.60;2.88;;;;;;;20.20;47.25;102298.84;5032782;28;20040;-67
2022/06/14 07:07:47;;;;;;;5.78;1.77;;;;;;;20.42;46.18;102303.28;4936900;29;20512;-66
2022/06/14 07:10:23;;;;;;;6.03;2.40;;;;;;;20.49;45.33;102299.00;4934344;29;20047;-67
2022/06/14 07:12:54;;;;;;;8.23;2.25;;;;;;;20.53;45.19;102292.25;4996311;28;20128;-67
2022/06/14 07:15:46;;;;;;;5.93;2.83;;;;;;;20.64;45.04;102296.75;5046047;28;20076;-67
2022/06/14 07:18:21;;;;;;;9.20;2.30;;;;;;;20.76;44.63;102292.88;5033079;28;20052;-66
2022/06/14 07:20:51;;;;;;;;;;;;;;;20.93;44.97;102291.38;5033341;28;20091;-66
2022/06/14 07:23:41;;;;;;;8.18;3.22;;;;;;;21.15;44.33;102292.97;5033033;28;19920;-67
2022/06/14 07:26:24;;;;;;;8.80;2.58;;;;;;;21.29;44.10;102292.56;5033335;28;20046;-66
2022/06/14 07:29:11;;;;;;;9.82;2.67;;;;;;;21.34;43.35;102297.63;5033428;28;20084;-66
2022/06/14 07:32:16;;;;;;;11.30;2.55;;;;;;;21.37;42.83;102283.66;5033117;28;20033;-67
2022/06/14 07:34:54;;;;;;;7.85;2.65;;;;;;;21.49;42.70;102288.81;5034864;28;20042;-66
2022/06/14 07:37:42;;;;;;;10.02;2.75;;;;;;;21.62;42.32;102285.81;5032122;28;20046;-66
2022/06/14 07:40:45;;;;;;;6.90;2.33;;;;;;;21.81;42.36;102284.94;5032089;28;20057;-65
2022/06/14 07:43:23;;;;;;;6.88;2.20;;;;;;;21.99;41.58;102288.63;5032016;28;20446;-64
2022/06/14 07:45:50;;;;;;;6.45;2.30;;;;;;;22.16;41.33;102278.81;5032322;28;20041;-64
2022/06/14 07:48:32;;;;;;;4.63;1.50;;;;;;;22.32;40.82;102276.31;5031051;28;20043;-64
2022/06/14 07:51:11;;;;;;;6.78;1.67;;;;;;;22.48;40.30;102276.53;5021630;28;20092;-65
2022/06/14 07:53:40;;;;;;;8.10;2.17;;;;;;;22.65;40.00;102274.84;5030757;28;20099;-65
2022/06/14 07:56:26;;;;;;;8.65;2.15;;;;;;;22.78;39.85;102277.22;5032096;28;20487;-65
2022/06/14 07:59:01;;;;;;;4.55;2.15;;;;;;;22.89;39.63;102279.75;5031840;28;20053;-65
2022/06/14 08:01:41;;;;;;;7.07;2.00;;;;;;;22.98;39.24;102277.97;5031987;28;20107;-65
2022/06/14 08:04:16;;;;;;;7.07;2.00;;;;;;;23.11;39.21;102281.22;5030453;28;20155;-65
2022/06/14 08:07:02;;;;;;;5.70;2.60;;;;;;;23.27;38.60;102280.50;5031830;28;20041;-65
2022/06/14 08:09:43;;;;;;;6.75;2.42;;;;;;;23.29;38.35;102271.13;5032299;28;20050;-65
2022/06/14 08:12:20;;;;;;;4.25;1.60;;;;;;;23.35;38.20;102273.22;5040120;28;21598;-66
2022/06/14 08:14:54;;;;;;;3.75;1.60;;;;;;;23.45;37.99;102268.50;5030542;28;20054;-66
2022/06/14 08:17:34;;;;;;;4.88;1.90;;;;;;;23.51;37.99;102268.91;5031458;28;20037;-66
2022/06/14 08:20:01;;;;;;;6.38;1.83;;;;;;;23.62;38.01;102264.06;5033034;28;20038;-65
2022/06/14 08:22:38;;;;;;;5.13;1.67;;;;;;;23.72;37.67;102270.28;5032728;28;20037;-65
2022/06/14 08:25:10;;;;;;;5.70;1.88;;;;;;;23.81;37.41;102268.50;5033036;28;20053;-66
2022/06/14 08:27:45;;;;;;;5.60;1.80;;;;;;;23.89;37.04;102265.81;5031803;28;20111;-66
2022/06/14 08:30:20;;;;;;;5.40;1.57;;;;;;;23.97;36.89;102263.13;5031494;28;20056;-66
2022/06/14 08:32:56;;;;;;;3.72;1.83;;;;;;;24.03;36.83;102256.97;5049798;28;20395;-66
2022/06/14 08:35:40;;;;;;;6.90;1.40;;;;;;;24.17;36.46;102251.91;5030887;28;20057;-66
2022/06/14 08:38:19;;;;;;;4.43;1.50;;;;;;;24.30;36.28;102260.56;5038351;28;20032;-65
2022/06/14 08:41:05;;;;;;;4.18;1.45;;;;;;;24.30;35.98;102263.31;5033744;28;20045;-66
2022/06/14 08:43:43;;;;;;;4.80;1.83;;;;;;;24.28;35.68;102260.75;5032373;28;20503;-66
2022/06/14 08:46:21;;;;;;;5.55;1.95;;;;;;;24.29;35.82;102258.84;5031197;28;20046;-66
2022/06/14 08:49:07;;;;;;;4.82;1.90;;;;;;;24.32;35.81;102261.28;5036651;28;20403;-66
2022/06/14 08:51:40;;;;;;;5.28;1.80;;;;;;;24.40;35.54;102261.31;5011761;28;20121;-67
2022/06/14 08:54:45;;;;;;;7.00;2.10;;;;;;;24.44;35.70;102261.84;5027760;28;20474;-66
2022/06/14 08:57:43;;;;;;;5.80;2.33;;;;;;;24.59;35.61;102254.72;5032380;28;20041;-66
2022/06/14 09:00:24;;;;;;;5.10;1.83;;;;;;;24.78;35.55;102256.31;5020243;28;20049;-67
2022/06/14 09:03:28;;;;;;;8.38;2.40;;;;;;;24.83;34.94;102254.78;5032184;28;20060;-66
2022/06/14 09:06:24;;;;;;;6.30;2.00;;;;;;;24.89;35.08;102248.59;5027887;28;20038;-67
2022/06/14 09:09:29;;;;;;;5.22;2.03;;;;;;;24.95;35.18;102245.19;5031303;28;20042;-67
2022/06/14 09:12:34;;;;;;;7.57;2.00;;;;;;;25.09;34.91;102253.81;5044826;28;20059;-66
2022/06/14 09:15:31;;;;;;;4.57;1.88;;;;;;;25.16;34.88;102244.72;5043733;28;20116;-66
2022/06/14 09:18:48;;;;;;;8.48;2.28;;;;;;;25.22;34.71;102249.53;5029589;28;20045;-67
2022/06/14 09:21:30;;;;;;;7.53;1.95;;;;;;;25.33;34.65;102242.88;5035125;28;20049;-67
2022/06/14 09:24:12;;;;;;;6.72;2.58;;;;;;;25.39;34.51;102249.56;5033444;28;20141;-67
2022/06/14 09:26:51;;;;;;;4.55;2.08;;;;;;;25.33;34.03;102245.63;5033733;28;20487;-67
2022/06/14 09:29:33;;;;;;;4.38;1.83;;;;;;;25.36;33.78;102245.28;5036387;28;20107;-67
2022/06/14 09:36:07;;;;;;;6.90;2.28;;;;;;;25.48;33.82;102245.78;5036466;28;20099;-66
2022/06/14 09:38:46;;;;;;;7.38;2.45;;;;;;;25.58;34.12;102251.97;5045676;28;20091;-66
2022/06/14 09:41:32;;;;;;;8.45;2.40;;;;;;;25.67;33.88;102241.84;5045015;28;20080;-67
2022/06/14 09:44:35;;;;;;;5.85;2.38;;;;;;;25.70;33.27;102238.75;5036514;28;20069;-67
2022/06/14 09:47:45;;;;;;;6.90;2.30;;;;;;;25.77;33.05;102240.63;5016516;28;20034;-67
2022/06/14 09:50:30;;;;;;;4.30;1.85;;;;;;;25.83;33.17;102228.06;5034264;28;20056;-67
2022/06/14 09:53:19;;;;;;;4.53;2.13;;;;;;;25.87;32.90;102233.03;5035706;28;20049;-68
2022/06/14 09:56:19;;;;;;;6.10;2.25;;;;;;;25.96;33.14;102226.47;5035214;28;20051;-67
2022/06/14 09:59:03;;;;;;;7.50;1.98;;;;;;;26.11;32.84;102223.00;5039091;28;20037;-66
2022/06/14 10:01:53;;;;;;;6.15;2.00;;;;;;;26.20;32.62;102221.94;5035066;28;20065;-67
2022/06/14 10:04:31;;;;;;;5.70;1.95;;;;;;;26.34;32.69;102223.13;5024762;28;20467;-67
2022/06/14 10:07:26;;;;;;;5.43;2.08;;;;;;;26.39;32.37;102209.66;5034841;28;20046;-67
2022/06/14 10:10:05;;;;;;;4.82;2.15;;;;;;;26.48;32.12;102216.84;5035274;28;20574;-67
2022/06/14 10:12:32;;;;;;;7.00;2.15;;;;;;;26.50;32.14;102207.34;5035208;28;20510;-66
2022/06/14 10:15:27;;;;;;;6.70;2.03;;;;;;;26.49;32.10;102211.16;5038986;28;20033;-66
2022/06/14 10:18:14;;;;;;;2.80;1.58;;;;;;;26.57;31.91;102213.88;5025572;28;20116;-67
2022/06/14 10:20:45;;;;;;;5.28;1.80;;;;;;;26.57;31.51;102208.34;5032351;28;20056;-67
2022/06/14 10:23:37;;;;;;;8.15;2.40;;;;;;;26.54;31.48;102203.19;5026016;28;20041;-66
2022/06/14 10:29:39;;;;;;;5.07;1.58;;;;;;;26.74;31.77;102195.31;5045681;28;20116;-67
2022/06/14 10:32:17;;;;;;;5.15;1.90;;;;;;;26.87;31.31;102189.25;5025189;28;20128;-68
2022/06/14 10:34:49;;;;;;;3.95;1.70;;;;;;;26.89;31.22;102195.44;5034547;28;20025;-67
2022/06/14 10:37:46;;;;;;;3.92;2.15;;;;;;;26.96;31.36;102179.88;5042919;28;20076;-66
2022/06/14 10:40:35;;;;;;;6.43;2.55;;;;;;;27.02;31.43;102181.91;5020953;28;20045;-66
2022/06/14 10:43:32;;;;;;;4.07;2.22;;;;;;;27.06;31.25;102187.91;5034895;28;20030;-67
2022/06/14 10:46:12;;;;;;;5.75;2.10;;;;;;;27.00;31.24;102181.25;5030183;28;20067;-68
2022/06/14 10:49:21;;;;;;;6.65;2.00;;;;;;;26.89;31.53;102179.75;5033101;28;20089;-67
2022/06/14 10:51:56;;;;;;;8.50;2.13;;;;;;;26.88;31.08;102168.91;5031192;28;20485;-66
2022/06/14 10:54:41;;;;;;;6.97;2.22;;;;;;;26.87;31.15;102167.19;5033452;28;20045;-67
2022/06/14 10:57:45;;;;;;;6.07;1.88;;;;;;;26.91;30.90;102179.56;5033819;28;20412;-64
2022/06/14 11:00:27;;;;;;;5.75;2.20;;;;;;;27.01;31.01;102165.56;5036723;28;20463;-64
2022/06/14 11:03:07;;;;;;;6.18;1.88;;;;;;;27.08;30.58;102167.38;5033086;28;20462;-65
2022/06/14 11:05:55;;;;;;;6.03;2.20;;;;;;;27.18;30.65;102159.72;5032778;28;20037;-65
2022/06/14 11:08:36;;;;;;;3.97;1.83;;;;;;;27.35;30.63;102165.06;5033883;28;20089;-65
2022/06/14 11:11:25;;;;;;;6.47;2.42;;;;;;;27.44;30.49;102155.66;5033428;28;20395;-64
2022/06/14 11:14:04;;;;;;;5.45;2.17;;;;;;;27.47;30.44;102149.78;5032751;28;20034;-65
2022/06/14 11:16:39;;;;;;;6.05;2.45;;;;;;;27.51;30.31;102152.00;5031628;28;20407;-64
2022/06/14 11:19:29;;;;;;;4.13;1.90;;;;;;;27.60;30.24;102149.16;5030138;28;20065;-64
2022/06/14 11:22:23;;;;;;;6.88;2.40;;;;;;;27.70;30.21;102145.09;5031404;28;20303;-64
2022/06/14 11:25:07;;;;;;;6.13;2.15;;;;;;;27.78;30.10;102142.22;5031678;28;20056;-65
2022/06/14 11:27:39;;;;;;;5.40;1.52;;;;;;;27.81;30.17;102132.72;5039828;28;20139;-65
2022/06/14 11:30:30;;;;;;;6.18;1.92;;;;;;;27.82;29.65;102132.53;5033157;28;20034;-65
2022/06/14 11:33:18;;;;;;;4.30;1.75;;;;;;;27.84;29.83;102126.81;5032763;28;20388;-65
2022/06/14 11:35:54;;;;;;;4.05;1.77;;;;;;;27.93;29.85;102130.31;5032882;28;20037;-65
2022/06/14 11:38:41;;;;;;;6.20;1.90;;;;;;;28.05;29.64;102124.09;5032530;28;20095;-65
2022/06/14 11:41:11;;;;;;;5.45;1.83;;;;;;;28.16;29.59;102125.50;5035341;28;20501;-65
2022/06/14 11:44:05;;;;;;;7.07;2.00;;;;;;;28.16;29.65;102117.22;5019167;28;20483;-64
2022/06/14 11:46:53;;;;;;;4.35;1.30;;;;;;;28.24;29.87;102108.88;5032416;28;20487;-65
2022/06/14 11:49:32;;;;;;;4.43;1.80;;;;;;;28.40;29.50;102111.41;5032472;28;20445;-64
2022/06/14 11:52:28;;;;;;;3.88;1.60;;;;;;;28.48;29.34;102113.19;5032268;28;20547;-65
2022/06/14 11:55:10;;;;;;;9.38;1.80;;;;;;;28.58;29.18;102115.63;5031977;28;20057;-64
2022/06/14 11:58:07;;;;;;;4.35;1.38;;;;;;;28.57;28.77;102114.78;5032256;28;20045;-65
2022/06/14 12:00:40;;;;;;;4.30;1.40;;;;;;;28.59;28.52;102104.38;5033371;28;20574;-64
2022/06/14 12:03:43;;;;;;;3.87;1.70;;;;;;;28.68;28.46;102105.97;5033399;28;20486;-65
2022/06/14 12:06:39;;;;;;;4.25;1.42;;;;;;;28.76;28.41;102105.81;5034157;28;20049;-65
2022/06/14 12:09:31;;;;;;;3.72;1.60;;;;;;;28.80;27.98;102096.06;5045399;28;20064;-65
2022/06/14 12:12:16;;;;;;;5.35;1.13;;;;;;;28.86;28.02;102102.75;5033703;28;20049;-65
2022/06/14 12:14:53;;;;;;;4.90;1.40;;;;;;;28.97;28.05;102101.34;5037732;28;20111;-65
2022/06/14 12:17:28;;;;;;;4.57;1.60;;;;;;;29.08;28.01;102096.16;5036288;28;20036;-64
2022/06/14 12:20:04;;;;;;;3.25;1.38;;;;;;;29.15;27.83;102089.81;5035851;28;20037;-64
2022/06/14 12:22:57;;;;;;;5.90;1.80;;;;;;;29.17;27.97;102093.25;5042895;28;20471;-64
2022/06/14 12:28:20;;;;;;;6.15;1.65;;;;;;;29.11;27.51;102086.59;5031849;28;20033;-64
2022/06/14 12:30:52;;;;;;;4.22;1.40;;;;;;;29.10;27.40;102091.28;5031859;28;20072;-65
2022/06/14 12:33:30;;;;;;;3.15;1.30;;;;;;;29.12;27.46;102084.69;5031179;28;20049;-65
2022/06/14 12:36:31;;;;;;;4.10;1.20;;;;;;;29.12;27.36;102080.00;5037390;28;20060;-64
2022/06/14 12:39:12;;;;;;;3.58;1.63;;;;;;;29.15;27.20;102070.47;5032536;28;20511;-65
2022/06/14 12:41:56;;;;;;;3.95;1.35;;;;;;;29.21;27.15;102067.75;5030057;28;20543;-65
2022/06/14 12:44:55;;;;;;;3.15;1.70;;;;;;;29.26;27.12;102064.38;5031623;28;20042;-64
2022/06/14 12:47:49;;;;;;;6.07;2.13;;;;;;;29.33;26.89;102059.72;5031461;28;20060;-64
2022/06/14 12:50:22;;;;;;;4.25;1.50;;;;;;;29.49;27.07;102058.56;5031328;28;20034;-65